Time;durP1;ratioP1;P1;durP2;ratioP2;P2;SDS_P1;SDS_P2;PMS_P1;PMS_P2;Temp;Humidity;BMP_temperature;BMP_pressure;BME280_temperature;BME280_humidity;BME280_pressure;Samples;Min_cycle;Max_cycle;Signal;HPM_P1;HPM_P2
2023/02/19 00:02:09;;;;;;;5.80;3.67;;;3.30;99.90;;;3.11;76.66;99688.72;5008918;28;20203;-74
2023/02/19 00:04:39;;;;;;;6.30;3.57;;;3.30;99.90;;;3.12;75.85;99675.13;5011699;28;20754;-73
2023/02/19 00:07:08;;;;;;;6.77;4.03;;;3.30;99.90;;;3.10;75.47;99669.19;5018431;28;20207;-72
2023/02/19 00:09:36;;;;;;;11.00;3.80;;;3.30;99.90;;;3.11;75.99;99669.19;5014511;28;20215;-71
2023/02/19 00:12:05;;;;;;;5.87;3.03;;;3.30;99.90;;;3.14;76.15;99670.94;5013055;28;20207;-73
2023/02/19 00:14:34;;;;;;;5.13;3.63;;;3.30;99.90;;;3.15;75.23;99676.03;5010098;28;20660;-72
2023/02/19 00:17:02;;;;;;;4.60;2.73;;;3.30;99.90;;;3.14;75.19;99674.34;5013701;28;20493;-73
2023/02/19 00:19:31;;;;;;;7.53;3.00;;;3.30;99.90;;;3.16;74.73;99674.34;5012023;28;20270;-71
2023/02/19 00:22:01;;;;;;;4.83;2.70;;;3.30;99.90;;;3.15;74.73;99673.50;5014882;28;20211;-72
2023/02/19 00:24:29;;;;;;;5.03;3.17;;;3.30;99.90;;;3.17;74.82;99675.19;5021232;28;20242;-72
2023/02/19 00:26:58;;;;;;;6.13;2.93;;;3.40;99.90;;;3.18;75.00;99666.75;5014510;28;20603;-72
2023/02/19 00:29:27;;;;;;;8.97;3.23;;;3.40;99.90;;;3.19;74.39;99668.44;5021513;28;20219;-72
2023/02/19 00:31:56;;;;;;;4.53;2.70;;;3.40;99.90;;;3.19;74.17;99659.09;5021251;28;20246;-71
2023/02/19 00:34:25;;;;;;;5.53;2.90;;;3.40;99.90;;;3.23;74.46;99673.56;5024192;28;20234;-72
2023/02/19 00:36:53;;;;;;;4.67;2.63;;;3.40;99.90;;;3.19;74.38;99654.00;5007976;28;20211;-71
2023/02/19 00:39:23;;;;;;;6.60;3.03;;;3.50;99.90;;;3.26;74.36;99663.44;5012656;28;20623;-71
2023/02/19 00:41:52;;;;;;;4.33;2.63;;;3.50;99.90;;;3.30;73.85;99656.69;5018153;28;20207;-71
2023/02/19 00:44:21;;;;;;;4.37;2.87;;;3.50;99.90;;;3.30;73.51;99656.69;5010440;28;20286;-71
2023/02/19 00:46:49;;;;;;;6.23;2.93;;;3.50;99.90;;;3.32;74.37;99660.13;5019354;28;20231;-71
2023/02/19 00:49:22;;;;;;;4.73;3.07;;;3.50;99.90;;;3.31;73.84;99659.22;5009278;28;20208;-72
2023/02/19 00:51:52;;;;;;;6.50;2.83;;;3.50;99.90;;;3.34;74.39;99659.28;5016547;28;20729;-72
2023/02/19 00:54:23;;;;;;;5.47;3.10;;;3.50;99.90;;;3.36;73.48;99657.63;5024237;28;20211;-72
2023/02/19 00:56:52;;;;;;;4.77;3.07;;;3.60;99.90;;;3.35;73.94;99655.91;5032680;28;20196;-73
2023/02/19 00:59:20;;;;;;;4.13;2.80;;;3.60;99.90;;;3.36;73.81;99665.25;5017390;28;20219;-72
2023/02/19 01:01:49;;;;;;;4.13;2.70;;;3.60;99.90;;;3.37;73.67;99663.56;5014907;28;20211;-72
2023/02/19 01:04:17;;;;;;;5.67;2.57;;;3.60;99.90;;;3.37;73.40;99669.50;5020320;28;20207;-72
2023/02/19 01:06:47;;;;;;;5.17;3.03;;;3.60;99.90;;;3.37;73.35;99668.66;5022735;28;20226;-70
2023/02/19 01:09:16;;;;;;;4.23;2.43;;;3.60;99.90;;;3.37;72.95;99659.31;5022906;28;20196;-70
2023/02/19 01:11:46;;;;;;;4.80;2.53;;;3.50;99.90;;;3.35;72.68;99655.91;5029488;28;20230;-71
2023/02/19 01:14:14;;;;;;;3.87;2.57;;;3.60;99.90;;;3.37;72.48;99658.47;5028739;28;20203;-72
2023/02/19 01:16:43;;;;;;;7.07;2.70;;;3.60;99.90;;;3.39;72.14;99665.28;5023246;28;20203;-72
2023/02/19 01:19:14;;;;;;;6.43;2.83;;;3.60;99.90;;;3.39;72.87;99655.13;5028427;28;20222;-71
2023/02/19 01:21:43;;;;;;;6.07;2.23;;;3.60;99.90;;;3.42;71.81;99658.50;5024474;28;20636;-70
2023/02/19 01:24:11;;;;;;;5.83;2.10;;;3.60;99.90;;;3.41;72.37;99650.03;5024787;28;20207;-72
2023/02/19 01:26:40;;;;;;;4.80;2.70;;;3.60;99.90;;;3.42;72.42;99653.41;5019697;28;20242;-72
2023/02/19 01:29:10;;;;;;;7.30;2.47;;;3.60;99.90;;;3.43;72.58;99650.06;5018344;28;20234;-71
2023/02/19 01:31:40;;;;;;;4.90;2.37;;;3.70;99.90;;;3.45;72.49;99648.38;5017829;28;20238;-72
2023/02/19 01:34:12;;;;;;;5.23;3.00;;;3.70;99.90;;;3.47;71.76;99649.25;5016351;28;20271;-71
2023/02/19 01:36:40;;;;;;;4.47;2.53;;;3.70;99.90;;;3.48;72.04;99650.94;5024028;28;20279;-71
2023/02/19 01:39:10;;;;;;;5.53;2.63;;;3.70;99.90;;;3.50;72.22;99657.78;5017007;28;20207;-71
2023/02/19 01:41:41;;;;;;;5.70;2.60;;;3.70;99.90;;;3.48;71.82;99656.03;5017017;28;20214;-73
2023/02/19 01:45:01;;;;;;;6.53;2.33;;;3.70;99.90;;;3.49;71.83;99667.94;5013032;28;20214;-71
2023/02/19 01:47:31;;;;;;;5.50;2.77;;;3.70;99.90;;;3.49;72.45;99667.94;5007139;28;20247;-71
2023/02/19 01:50:00;;;;;;;5.97;2.47;;;3.70;99.90;;;3.48;72.36;99659.44;5013809;28;20281;-72
2023/02/19 01:52:34;;;;;;;4.40;2.53;;;3.70;99.90;;;3.50;72.37;99664.53;5008247;28;20224;-72
2023/02/19 01:55:07;;;;;;;3.50;2.50;;;3.70;99.90;;;3.48;72.17;99663.69;5009948;28;20207;-72
2023/02/19 01:57:40;;;;;;;5.97;3.00;;;3.70;99.90;;;3.46;71.30;99650.06;5019149;28;20227;-72
2023/02/19 02:00:14;;;;;;;6.80;3.00;;;3.70;99.90;;;3.47;72.11;99660.28;5016173;28;20215;-71
2023/02/19 02:02:51;;;;;;;4.03;2.30;;;3.70;99.90;;;3.50;71.82;99654.34;5003333;28;20210;-71
2023/02/19 02:05:36;;;;;;;9.10;2.53;;;3.70;99.90;;;3.49;71.95;99657.75;5008302;28;20211;-71
2023/02/19 02:10:52;;;;;;;5.77;2.10;;;3.70;99.90;;;3.48;71.23;99661.13;5012560;28;20325;-68
2023/02/19 02:13:21;;;;;;;5.27;2.80;;;3.60;99.90;;;3.48;72.07;99661.97;5012200;28;20239;-70
2023/02/19 02:16:02;;;;;;;5.13;2.30;;;3.70;99.90;;;3.48;71.63;99656.03;5012413;28;20207;-71
2023/02/19 02:18:47;;;;;;;4.10;2.43;;;3.70;99.90;;;3.47;71.74;99647.56;5010068;28;20581;-70
2023/02/19 02:21:50;;;;;;;6.27;2.73;;;3.70;99.90;;;3.49;71.44;99653.50;5011331;28;20254;-71
2023/02/19 02:24:57;;;;;;;8.10;3.00;;;3.70;99.90;;;3.50;71.94;99656.91;5005972;28;20211;-72
2023/02/19 02:27:40;;;;;;;5.00;2.47;;;3.70;99.90;;;3.49;71.94;99657.75;5007715;28;20219;-71
2023/02/19 02:30:31;;;;;;;5.97;2.50;;;3.70;99.90;;;3.48;71.87;99656.88;5011945;28;20261;-72
2023/02/19 02:33:12;;;;;;;8.57;3.50;;;3.70;99.90;;;3.46;72.77;99648.41;5004242;28;20548;-71
2023/02/19 02:35:47;;;;;;;4.63;2.90;;;3.70;99.90;;;3.47;73.09;99659.44;5006534;28;20206;-70
2023/02/19 02:38:20;;;;;;;5.27;2.93;;;3.70;99.90;;;3.46;72.64;99667.88;5003244;28;20202;-71
2023/02/19 02:40:49;;;;;;;4.57;2.70;;;3.70;99.90;;;3.43;73.40;99667.88;5010051;28;20231;-69
2023/02/19 02:43:18;;;;;;;5.30;3.00;;;3.70;99.90;;;3.40;73.40;99666.16;5006407;28;20245;-69
2023/02/19 02:45:47;;;;;;;4.13;2.73;;;3.60;99.90;;;3.38;73.93;99655.94;5011541;28;20219;-70
2023/02/19 02:48:27;;;;;;;6.50;2.83;;;3.60;99.90;;;3.35;74.05;99648.28;5010564;28;20347;-71
2023/02/19 02:51:02;;;;;;;6.23;3.30;;;3.60;99.90;;;3.36;73.94;99664.41;5012525;28;20203;-70
2023/02/19 02:56:24;;;;;;;9.40;2.57;;;3.60;99.90;;;3.37;74.22;99661.00;5007831;28;20195;-70
2023/02/19 02:58:56;;;;;;;3.87;2.23;;;3.60;99.90;;;3.36;73.84;99659.31;5010540;28;20247;-71
2023/02/19 03:04:24;;;;;;;7.80;2.63;;;3.60;99.90;;;3.38;74.07;99650.84;5010750;28;20661;-72
2023/02/19 03:06:55;;;;;;;8.27;2.53;;;3.60;99.90;;;3.38;74.89;99650.84;5012382;28;20234;-71
2023/02/19 03:09:30;;;;;;;5.33;2.10;;;3.60;99.90;;;3.36;74.15;99649.97;5013167;28;20258;-73
2023/02/19 03:20:44;;;;;;;4.77;2.10;;;3.50;99.90;;;3.28;74.77;99653.28;5012652;28;20207;-70
2023/02/19 03:23:16;;;;;;;6.57;2.10;;;3.60;99.90;;;3.29;75.03;99657.53;5011893;28;20238;-73
2023/02/19 03:26:02;;;;;;;4.73;2.40;;;3.50;99.90;;;3.26;74.69;99643.06;5010475;28;20239;-72
2023/02/19 03:31:27;;;;;;;3.73;1.83;;;3.40;99.90;;;3.22;74.56;99658.28;4999734;28;20196;-72
2023/02/19 03:34:02;;;;;;;6.20;2.10;;;3.40;99.90;;;3.19;74.87;99656.56;5010934;28;20688;-71
2023/02/19 03:36:40;;;;;;;11.73;2.87;;;3.40;99.90;;;3.16;74.89;99661.59;5006724;28;20209;-72
2023/02/19 03:39:11;;;;;;;5.47;2.00;;;3.40;99.90;;;3.13;74.80;99653.97;5014094;28;20277;-72
2023/02/19 03:41:49;;;;;;;7.10;2.10;;;3.40;99.90;;;3.11;74.88;99645.44;5015824;28;20250;-72
2023/02/19 03:44:25;;;;;;;5.20;1.97;;;3.30;99.90;;;3.10;74.98;99653.91;5010746;28;20218;-71
2023/02/19 03:47:02;;;;;;;4.37;2.13;;;3.30;99.90;;;3.08;74.32;99645.41;5013977;28;20376;-73
2023/02/19 03:49:42;;;;;;;4.47;2.00;;;3.30;99.90;;;3.10;74.60;99646.28;5007808;28;20273;-70
2023/02/19 03:52:18;;;;;;;6.13;2.23;;;3.30;99.90;;;3.08;74.66;99635.22;5015224;28;20210;-72
2023/02/19 03:54:57;;;;;;;9.17;2.37;;;3.30;99.90;;;3.06;73.85;99637.75;5015303;28;20223;-72
2023/02/19 03:57:34;;;;;;;4.23;2.07;;;3.20;99.90;;;3.01;73.78;99628.34;5005625;28;20223;-70
2023/02/19 04:00:10;;;;;;;4.77;2.00;;;3.20;99.90;;;2.99;74.29;99630.03;5014389;28;20597;-71
2023/02/19 04:02:44;;;;;;;4.37;1.90;;;3.10;99.90;;;2.91;74.11;99624.84;5015520;28;20215;-73
2023/02/19 04:05:18;;;;;;;5.53;1.90;;;3.10;99.90;;;2.88;74.85;99623.09;5014498;28;20233;-73
2023/02/19 04:07:50;;;;;;;4.37;2.23;;;3.00;99.90;;;2.83;74.40;99624.72;5014681;28;20234;-71
2023/02/19 04:10:20;;;;;;;4.33;2.07;;;3.00;99.90;;;2.81;74.61;99628.09;5015051;28;20346;-71
2023/02/19 04:12:56;;;;;;;7.60;2.37;;;3.00;99.90;;;2.78;74.90;99636.53;5013528;28;20606;-71
2023/02/19 04:15:31;;;;;;;7.23;1.90;;;2.90;99.90;;;2.77;74.60;99639.94;5008605;28;20207;-74
2023/02/19 04:18:06;;;;;;;7.53;2.67;;;2.90;99.90;;;2.71;74.09;99619.47;5014055;28;20210;-72
2023/02/19 04:20:43;;;;;;;4.70;1.83;;;2.90;99.90;;;2.67;74.58;99610.09;5000874;28;20573;-73
2023/02/19 04:23:12;;;;;;;6.00;2.57;;;2.80;99.90;;;2.65;74.58;99615.19;5012875;28;20215;-72
2023/02/19 04:25:45;;;;;;;5.47;2.07;;;2.80;99.90;;;2.63;74.77;99616.84;5015054;28;20222;-72
2023/02/19 04:28:15;;;;;;;3.53;1.67;;;2.80;99.90;;;2.62;74.88;99619.38;5006946;28;20742;-73
2023/02/19 04:30:44;;;;;;;7.13;1.93;;;2.80;99.90;;;2.61;74.74;99613.44;5010143;28;20281;-72
2023/02/19 04:33:18;;;;;;;4.47;2.10;;;2.80;99.90;;;2.63;74.25;99613.44;5011664;28;20211;-72
2023/02/19 04:35:48;;;;;;;6.90;2.30;;;2.80;99.90;;;2.65;74.38;99609.22;5014042;28;20664;-72
2023/02/19 04:38:17;;;;;;;2.83;1.73;;;2.80;99.90;;;2.64;74.64;99604.97;5012243;28;20270;-72
2023/02/19 04:40:46;;;;;;;7.17;1.93;;;2.80;99.90;;;2.63;73.69;99603.28;5013096;28;20215;-73
2023/02/19 04:43:15;;;;;;;3.50;1.67;;;2.80;99.90;;;2.58;74.81;99603.22;4998333;28;20210;-72
2023/02/19 04:45:43;;;;;;;7.63;1.90;;;2.80;99.90;;;2.56;74.17;99598.94;5013712;28;20208;-72
2023/02/19 04:48:12;;;;;;;6.20;2.60;;;2.80;99.90;;;2.57;74.38;99605.72;5013019;28;20247;-72
2023/02/19 04:50:41;;;;;;;5.43;2.00;;;2.80;99.90;;;2.59;74.98;99609.16;5014305;28;20214;-71
2023/02/19 04:53:11;;;;;;;4.23;1.70;;;2.80;99.90;;;2.57;74.67;99609.13;5008426;28;20265;-72
2023/02/19 04:55:40;;;;;;;6.83;1.97;;;2.70;99.90;;;2.54;75.12;99611.66;5015263;28;20215;-72
2023/02/19 04:58:08;;;;;;;5.77;2.33;;;2.70;99.90;;;2.52;74.03;99620.94;5014837;28;20214;-71
2023/02/19 05:00:37;;;;;;;5.53;1.87;;;2.70;99.90;;;2.51;74.71;99616.69;5015127;28;20214;-71
2023/02/19 05:03:06;;;;;;;6.60;1.90;;;2.70;99.90;;;2.51;74.46;99608.22;5011075;28;20203;-71
2023/02/19 05:05:35;;;;;;;6.57;2.00;;;2.70;99.90;;;2.51;74.82;99603.13;5009464;28;20652;-71
2023/02/19 05:08:04;;;;;;;4.33;2.27;;;2.70;99.90;;;2.51;74.86;99601.44;5011393;28;20285;-71
2023/02/19 05:10:34;;;;;;;3.77;1.73;;;2.70;99.90;;;2.53;74.50;99609.06;5011031;28;20230;-70
2023/02/19 05:13:03;;;;;;;4.87;2.67;;;2.80;99.90;;;2.52;75.52;99603.13;5012305;28;20257;-71
2023/02/19 05:15:31;;;;;;;8.37;2.93;;;2.70;99.90;;;2.52;74.75;99610.75;5014455;28;20269;-72
2023/02/19 05:18:00;;;;;;;5.93;2.43;;;2.70;99.90;;;2.50;75.20;99604.78;5006755;28;20631;-72
2023/02/19 05:20:29;;;;;;;7.93;2.40;;;2.70;99.90;;;2.50;74.78;99594.59;5014372;28;20210;-72
2023/02/19 05:22:57;;;;;;;5.83;2.37;;;2.70;99.90;;;2.50;74.55;99593.75;5012987;28;20206;-73
2023/02/19 05:25:26;;;;;;;8.73;2.70;;;2.70;99.90;;;2.50;75.65;99598.84;5013368;28;20218;-72
2023/02/19 05:28:15;;;;;;;6.77;3.33;;;2.70;99.90;;;2.48;74.89;99600.53;5001563;28;20664;-71
2023/02/19 05:30:45;;;;;;;4.63;2.50;;;2.70;99.90;;;2.48;75.15;99603.06;5014385;28;20203;-72
2023/02/19 05:33:14;;;;;;;7.13;3.37;;;2.60;99.90;;;2.47;75.18;99601.34;5011176;28;20241;-72
2023/02/19 05:35:45;;;;;;;6.37;2.87;;;2.70;99.90;;;2.48;75.39;99588.66;5013815;28;20265;-72
2023/02/19 05:38:13;;;;;;;7.90;3.17;;;2.70;99.90;;;2.48;75.64;99592.91;5012018;28;20222;-72
2023/02/19 05:40:43;;;;;;;5.63;3.20;;;2.70;99.90;;;2.50;75.79;99588.69;5004109;28;20681;-73
2023/02/19 05:43:13;;;;;;;6.17;3.30;;;2.70;99.90;;;2.53;75.60;99586.19;5011338;28;20285;-72
2023/02/19 05:45:42;;;;;;;7.47;2.83;;;2.70;99.90;;;2.54;75.29;99590.41;5002479;28;20736;-71
2023/02/19 05:48:12;;;;;;;5.50;3.00;;;2.80;99.90;;;2.55;74.98;99585.38;5004552;28;20310;-71
2023/02/19 05:50:41;;;;;;;5.70;2.73;;;2.80;99.90;;;2.56;76.23;99579.44;5013766;28;20709;-72
2023/02/19 05:53:10;;;;;;;5.33;2.73;;;2.80;99.90;;;2.56;75.59;99583.69;5011540;28;20660;-70
2023/02/19 05:55:39;;;;;;;7.27;3.13;;;2.80;99.90;;;2.59;75.51;99583.72;5008311;28;20215;-71
2023/02/19 05:58:07;;;;;;;6.20;2.90;;;2.80;99.90;;;2.64;74.98;99587.16;5013673;28;20265;-71
2023/02/19 06:00:37;;;;;;;5.53;2.93;;;2.90;99.90;;;2.66;75.95;99588.06;5003500;28;20582;-70
2023/02/19 06:03:06;;;;;;;5.70;3.67;;;2.90;99.90;;;2.67;75.33;99598.25;5009762;28;20250;-73
2023/02/19 06:05:34;;;;;;;5.03;3.20;;;2.90;99.90;;;2.66;75.03;99593.16;5007136;28;20203;-72
2023/02/19 06:08:02;;;;;;;6.87;3.23;;;2.90;99.90;;;2.69;74.84;99592.31;5013910;28;20652;-72
2023/02/19 06:10:31;;;;;;;6.20;3.20;;;2.90;99.90;;;2.70;75.26;99591.50;5014843;28;20266;-71
2023/02/19 06:13:00;;;;;;;8.00;3.77;;;2.90;99.90;;;2.71;75.09;99588.09;5018345;28;20228;-72
2023/02/19 06:15:28;;;;;;;5.87;3.33;;;2.90;99.90;;;2.73;75.63;99596.63;5002689;28;21355;-72
2023/02/19 06:17:58;;;;;;;8.27;3.47;;;2.90;99.90;;;2.71;75.31;99590.66;5007681;28;20664;-72
2023/02/19 06:20:27;;;;;;;6.70;3.10;;;3.00;99.90;;;2.72;75.67;99594.91;5013260;28;20253;-74
2023/02/19 06:22:55;;;;;;;9.83;3.53;;;3.00;99.90;;;2.73;74.94;99597.47;5013123;28;20210;-72
2023/02/19 06:25:24;;;;;;;6.50;3.13;;;3.00;99.90;;;2.75;75.32;99605.13;5022337;28;20694;-73
2023/02/19 06:27:52;;;;;;;10.03;4.13;;;2.90;99.90;;;2.75;75.14;99600.03;5012392;28;20215;-72
2023/02/19 06:30:21;;;;;;;7.60;3.83;;;3.00;99.90;;;2.75;75.61;99605.97;5011101;28;20274;-71
2023/02/19 06:32:53;;;;;;;8.03;3.53;;;3.00;99.90;;;2.79;75.23;99611.94;5006875;28;20712;-72
2023/02/19 06:35:23;;;;;;;9.37;3.77;;;3.00;99.90;;;2.81;75.25;99607.75;4998403;28;20621;-73
2023/02/19 06:37:52;;;;;;;6.70;4.03;;;3.00;99.90;;;2.82;75.77;99607.75;5013402;28;20207;-76
2023/02/19 06:40:21;;;;;;;6.50;3.77;;;3.00;99.90;;;2.87;74.65;99597.63;4999847;28;20214;-72
2023/02/19 06:42:49;;;;;;;7.93;4.10;;;3.10;99.90;;;2.90;75.42;99601.06;5011119;28;20203;-68
2023/02/19 06:45:19;;;;;;;12.30;3.90;;;3.10;99.90;;;2.96;74.83;99607.09;5010152;28;20211;-68
2023/02/19 06:47:47;;;;;;;7.83;3.63;;;3.20;99.90;;;2.98;75.16;99595.22;5009537;28;20281;-67
2023/02/19 06:50:16;;;;;;;9.97;4.90;;;3.20;99.90;;;3.06;74.32;99593.63;5011725;28;20227;-66
2023/02/19 06:52:46;;;;;;;7.77;3.97;;;3.20;99.90;;;3.11;74.62;99600.47;5003010;28;20220;-71
2023/02/19 06:55:14;;;;;;;8.57;3.63;;;3.30;99.90;;;3.14;74.18;99597.97;4998902;28;20250;-72
2023/02/19 06:57:43;;;;;;;6.47;3.60;;;3.40;99.90;;;3.14;74.31;99605.59;5010358;28;20326;-68
2023/02/19 07:00:12;;;;;;;6.77;3.60;;;3.40;99.90;;;3.12;74.39;99603.88;5005951;28;20212;-69
2023/02/19 07:02:41;;;;;;;6.80;3.00;;;3.30;99.90;;;3.13;73.48;99610.69;5010644;28;20215;-71
2023/02/19 07:05:09;;;;;;;6.07;3.27;;;3.40;99.90;;;3.11;74.45;99612.34;5010379;28;20207;-68
2023/02/19 07:07:38;;;;;;;5.70;3.30;;;3.30;99.90;;;3.07;73.87;99608.06;5015286;28;20648;-69
2023/02/19 07:10:09;;;;;;;12.00;3.87;;;3.30;99.90;;;3.08;74.57;99612.31;5009790;28;20700;-68
2023/02/19 07:12:37;;;;;;;5.43;3.40;;;3.30;99.90;;;3.07;73.91;99608.91;5013845;28;20664;-70
2023/02/19 07:15:06;;;;;;;8.83;3.23;;;3.30;99.90;;;3.08;74.77;99620.78;5012484;28;20195;-69
2023/02/19 07:17:35;;;;;;;5.40;3.03;;;3.30;99.90;;;3.10;73.96;99620.84;5013281;28;20268;-69
2023/02/19 07:20:04;;;;;;;7.87;3.63;;;3.30;99.90;;;3.10;73.87;99628.47;5010827;28;20208;-70
2023/02/19 07:22:32;;;;;;;7.77;3.40;;;3.30;99.90;;;3.07;74.50;99616.56;5013641;28;20211;-72
2023/02/19 07:25:01;;;;;;;8.77;3.57;;;3.30;99.90;;;3.05;74.21;99620.75;5010984;28;20729;-70
2023/02/19 07:27:30;;;;;;;5.07;2.93;;;3.30;99.90;;;3.07;74.49;99623.34;5013893;28;20211;-70
2023/02/19 07:29:59;;;;;;;8.90;4.13;;;3.30;99.90;;;3.07;74.63;99628.44;5012206;28;20238;-69
2023/02/19 07:32:28;;;;;;;7.87;3.73;;;3.30;99.90;;;3.08;74.02;99630.13;5013555;28;20203;-69
2023/02/19 07:34:56;;;;;;;5.17;3.50;;;3.30;99.90;;;3.06;74.78;99621.63;5012447;28;20253;-69
2023/02/19 07:37:25;;;;;;;8.03;4.20;;;3.30;99.90;;;3.08;74.52;99627.59;5014448;28;20203;-71
2023/02/19 07:39:53;;;;;;;13.23;4.00;;;3.30;99.90;;;3.09;74.81;99629.28;5010716;28;20207;-71
2023/02/19 07:42:22;;;;;;;6.90;3.77;;;3.40;99.90;;;3.12;74.34;99629.31;5015868;28;20739;-70
2023/02/19 07:44:52;;;;;;;8.57;3.70;;;3.40;99.90;;;3.16;74.35;99628.50;5013545;28;20587;-68
2023/02/19 07:47:20;;;;;;;6.33;3.70;;;3.30;99.90;;;3.16;74.24;99618.34;5012186;28;20239;-70
2023/02/19 07:49:49;;;;;;;11.43;4.20;;;3.40;99.90;;;3.18;74.83;99628.56;5012866;28;20223;-68
2023/02/19 07:52:17;;;;;;;6.93;3.90;;;3.40;99.90;;;3.20;74.51;99630.25;5011485;28;20254;-70
2023/02/19 07:54:46;;;;;;;8.47;4.67;;;3.50;99.90;;;3.26;73.67;99640.53;5015848;28;20664;-70
2023/02/19 07:57:15;;;;;;;6.43;4.07;;;3.50;99.90;;;3.28;74.10;99632.91;5008679;28;20215;-72
2023/02/19 07:59:43;;;;;;;8.17;4.70;;;3.50;99.90;;;3.32;73.57;99635.50;5016570;28;20273;-71
2023/02/19 08:05:02;;;;;;;8.47;3.90;;;3.60;99.90;;;3.47;73.66;99633.97;5009231;28;20563;-71
2023/02/19 08:07:32;;;;;;;9.57;4.07;;;3.70;99.90;;;3.53;73.76;99632.31;5015202;28;20599;-70
2023/02/19 08:15:41;;;;;;;7.50;3.60;;;3.90;99.90;;;3.70;72.29;99641.84;5009198;28;20203;-67
2023/02/19 08:18:13;;;;;;;8.63;4.03;;;3.90;99.90;;;3.72;71.70;99646.13;5004813;28;20713;-69
2023/02/19 08:20:42;;;;;;;9.97;3.70;;;3.90;99.90;;;3.74;71.75;99649.50;5014155;28;20211;-69
2023/02/19 08:23:15;;;;;;;6.47;3.73;;;3.90;99.90;;;3.77;72.36;99651.25;5011116;28;20200;-68
2023/02/19 08:25:44;;;;;;;7.80;4.10;;;4.00;99.90;;;3.82;72.28;99655.53;5013524;28;20207;-65
2023/02/19 08:28:13;;;;;;;8.23;4.13;;;4.10;99.90;;;3.84;71.46;99653.00;5011559;28;20750;-71
2023/02/19 08:30:44;;;;;;;6.63;3.70;;;4.10;99.90;;;3.91;71.82;99657.31;5018903;28;20231;-70
2023/02/19 08:33:18;;;;;;;10.83;3.43;;;4.20;99.90;;;3.97;71.58;99661.59;5008362;28;20654;-65
2023/02/19 08:35:47;;;;;;;7.87;3.87;;;4.20;99.90;;;4.02;71.20;99665.91;5007970;28;20258;-66
2023/02/19 08:38:16;;;;;;;8.50;3.53;;;4.30;99.90;;;4.07;70.69;99658.31;5011392;28;20854;-67
2023/02/19 08:40:44;;;;;;;8.20;3.70;;;4.30;99.90;;;4.10;70.39;99663.44;5012470;28;20640;-68
2023/02/19 08:43:16;;;;;;;7.67;3.30;;;4.30;99.90;;;4.11;70.49;99660.03;5013354;28;20219;-65
2023/02/19 08:45:47;;;;;;;9.17;4.00;;;4.30;99.90;;;4.13;70.38;99652.41;5014864;28;20203;-72
2023/02/19 08:48:17;;;;;;;4.70;3.03;;;4.40;99.90;;;4.18;69.34;99661.78;5011486;28;20247;-67
2023/02/19 08:50:45;;;;;;;6.40;3.30;;;4.40;99.90;;;4.19;69.78;99658.41;5008693;28;20258;-67
2023/02/19 08:53:13;;;;;;;6.87;3.27;;;4.50;99.90;;;4.22;69.82;99663.53;5014102;28;20270;-71
2023/02/19 08:55:42;;;;;;;7.47;3.20;;;4.50;99.90;;;4.24;68.63;99661.00;5008016;28;20627;-70
2023/02/19 08:58:11;;;;;;;9.90;3.70;;;4.50;99.90;;;4.21;68.68;99661.81;5011451;28;20220;-68
2023/02/19 09:00:40;;;;;;;8.40;3.73;;;4.50;99.90;;;4.21;68.74;99655.88;5007483;28;20235;-73
2023/02/19 09:03:09;;;;;;;5.60;3.50;;;4.50;99.90;;;4.24;69.21;99651.66;5000045;28;20211;-72
2023/02/19 09:05:40;;;;;;;7.53;3.47;;;4.50;99.90;;;4.27;69.33;99655.91;5007998;28;20404;-70
2023/02/19 09:08:10;;;;;;;8.60;3.17;;;4.50;99.90;;;4.27;68.85;99650.78;5006323;28;20223;-69
2023/02/19 09:10:39;;;;;;;8.30;3.50;;;4.50;99.90;;;4.29;69.40;99660.19;5011947;28;20219;-68
2023/02/19 09:13:07;;;;;;;4.57;3.10;;;4.50;99.90;;;4.36;69.29;99661.09;5015511;28;20203;-61
2023/02/19 09:15:38;;;;;;;7.43;3.60;;;4.60;99.90;;;4.42;68.94;99660.25;5000676;28;20224;-66
2023/02/19 09:18:06;;;;;;;8.13;3.30;;;4.70;99.90;;;4.47;68.91;99668.81;5011412;28;20929;-66
2023/02/19 09:20:35;;;;;;;6.20;3.80;;;4.70;99.90;;;4.49;68.85;99662.00;5013095;28;20239;-66
2023/02/19 09:23:05;;;;;;;5.83;3.27;;;4.70;99.90;;;4.48;68.08;99670.50;5009710;28;20242;-68
2023/02/19 09:25:33;;;;;;;11.20;3.23;;;4.70;99.90;;;4.47;67.99;99662.00;5007274;28;20212;-69
2023/02/19 09:28:02;;;;;;;6.50;3.07;;;4.80;99.90;;;4.49;68.07;99669.66;5001829;28;20250;-70
2023/02/19 09:30:30;;;;;;;5.47;3.40;;;4.70;99.90;;;4.49;67.60;99668.00;5007304;28;20223;-71
2023/02/19 09:32:58;;;;;;;7.53;3.33;;;4.80;99.90;;;4.54;67.47;99675.66;5013397;28;20203;-70
2023/02/19 09:35:27;;;;;;;6.13;3.43;;;4.80;99.90;;;4.56;67.14;99663.75;5014823;28;20710;-68
2023/02/19 09:37:55;;;;;;;7.70;3.30;;;4.80;99.90;;;4.60;67.33;99665.47;5012937;28;20234;-68
2023/02/19 09:40:25;;;;;;;10.87;3.33;;;4.80;99.90;;;4.65;66.88;99663.84;5011477;28;20230;-71
2023/02/19 09:42:54;;;;;;;7.57;4.37;;;4.90;99.90;;;4.69;67.38;99663.00;5009267;28;20211;-70
2023/02/19 09:45:26;;;;;;;5.93;3.50;;;5.00;99.90;;;4.73;66.33;99671.53;5012893;28;20219;-71
2023/02/19 09:47:58;;;;;;;8.30;3.77;;;5.00;99.90;;;4.70;66.42;99672.34;5011209;28;20297;-68
2023/02/19 09:50:34;;;;;;;4.70;2.93;;;5.00;99.90;;;4.70;65.75;99674.91;5012442;28;20231;-69
2023/02/19 09:53:10;;;;;;;7.83;3.57;;;5.00;99.90;;;4.65;66.05;99671.50;5017304;28;20261;-71
2023/02/19 09:55:43;;;;;;;6.80;3.30;;;5.00;99.90;;;4.65;65.93;99674.03;5007127;28;20217;-71
2023/02/19 09:58:26;;;;;;;6.27;3.63;;;4.90;99.90;;;4.73;66.18;99674.94;5009602;28;20727;-70
2023/02/19 10:00:57;;;;;;;8.07;2.97;;;5.00;99.90;;;4.81;65.76;99673.28;5006946;28;20279;-71
2023/02/19 10:03:33;;;;;;;5.63;3.33;;;5.20;99.90;;;4.85;64.98;99681.81;5007271;28;20210;-67
2023/02/19 10:06:11;;;;;;;6.03;3.77;;;5.10;99.90;;;4.83;64.86;99679.25;4998213;28;20205;-69
2023/02/19 10:08:41;;;;;;;7.57;3.37;;;5.10;99.90;;;5.11;66.28;99668.31;5002214;28;20219;-68
2023/02/19 10:11:13;;;;;;;5.23;3.30;;;5.40;99.90;;;6.90;67.11;99661.69;5008066;28;20207;-67
2023/02/19 10:13:45;;;;;;;3.63;2.70;;;7.20;99.90;;;9.54;60.90;99659.56;5009803;28;20237;-70
2023/02/19 10:16:19;;;;;;;4.57;2.87;;;9.40;99.90;;;11.94;51.61;99647.44;5011500;28;20580;-72
2023/02/19 10:18:48;;;;;;;5.00;2.63;;;11.50;99.90;;;14.05;44.36;99650.25;5005999;28;20203;-70
2023/02/19 10:21:21;;;;;;;5.60;2.80;;;13.50;99.90;;;13.89;40.87;99652.47;5011928;28;20250;-67
2023/02/19 10:23:54;;;;;;;6.10;3.30;;;13.50;95.30;;;12.76;40.64;99659.16;5007378;28;20281;-67
2023/02/19 10:26:24;;;;;;;8.07;3.30;;;12.80;91.90;;;11.67;42.36;99659.22;5013234;28;20727;-68
2023/02/19 10:28:54;;;;;;;5.47;3.43;;;12.00;92.20;;;10.94;44.57;99666.75;5007582;28;20230;-70
2023/02/19 10:31:25;;;;;;;6.50;3.53;;;11.30;93.70;;;10.27;45.63;99668.78;5008310;28;20251;-69
2023/02/19 10:33:56;;;;;;;5.53;2.90;;;10.60;94.00;;;9.70;46.60;99670.50;5010046;28;20631;-70
2023/02/19 10:36:29;;;;;;;6.37;3.73;;;10.00;95.20;;;9.17;48.56;99671.16;5006506;28;20211;-69
2023/02/19 10:39:01;;;;;;;5.73;3.17;;;9.50;97.20;;;8.77;49.45;99681.03;5011980;28;20199;-68
2023/02/19 10:41:31;;;;;;;4.97;2.80;;;9.10;98.70;;;8.51;49.58;99678.72;5003119;28;20207;-70
2023/02/19 10:44:06;;;;;;;6.87;3.00;;;8.70;99.90;;;8.77;50.74;99678.47;5012747;28;20207;-72
2023/02/19 10:46:41;;;;;;;4.70;2.93;;;9.10;99.90;;;9.00;49.93;99679.94;5017651;28;20245;-71
2023/02/19 10:49:25;;;;;;;4.90;3.27;;;9.30;99.90;;;9.04;48.65;99690.16;5013257;28;20198;-73
2023/02/19 10:51:55;;;;;;;4.60;2.57;;;9.30;99.90;;;8.80;48.60;99682.69;5017129;28;20265;-69
2023/02/19 10:54:30;;;;;;;4.93;2.93;;;9.00;99.90;;;8.43;49.30;99698.44;5012955;28;20211;-66
2023/02/19 10:57:28;;;;;;;6.60;2.83;;;8.70;99.90;;;7.99;50.00;99697.06;5012612;28;20191;-69
2023/02/19 11:00:01;;;;;;;4.53;2.57;;;8.30;99.90;;;7.79;50.75;99692.03;5013323;28;20229;-68
2023/02/19 11:02:31;;;;;;;7.00;2.53;;;8.10;99.90;;;7.99;51.53;99697.06;5000630;28;20208;-65
2023/02/19 11:05:16;;;;;;;3.83;2.30;;;8.30;99.90;;;7.89;50.17;99690.28;5004414;28;20213;-69
2023/02/19 11:07:48;;;;;;;7.33;2.80;;;8.20;99.90;;;7.64;50.42;99687.84;5012702;28;20253;-68
2023/02/19 11:10:29;;;;;;;5.17;2.27;;;7.90;99.90;;;7.43;51.23;99698.19;5017854;28;20683;-71
2023/02/19 11:13:03;;;;;;;4.50;2.60;;;7.70;99.90;;;7.28;51.49;99688.88;5013561;28;20214;-68
2023/02/19 11:15:34;;;;;;;6.33;3.03;;;7.60;99.90;;;7.15;52.04;99698.31;5008146;28;20206;-68
2023/02/19 11:18:15;;;;;;;3.97;2.10;;;7.40;99.90;;;7.05;52.20;99700.91;5015407;28;20207;-70
2023/02/19 11:20:49;;;;;;;8.97;3.00;;;7.40;99.90;;;6.98;52.88;99697.50;5012645;28;20660;-68